sensor_id;sensor_type;location;lat;lon;timestamp;temperature;humidity
52787;DHT22;38661;53.152;5.846;2022-12-18T00:00:43;-3273.80;96.20
52787;DHT22;38661;53.152;5.846;2022-12-18T00:03:09;-3273.90;96.20
52787;DHT22;38661;53.152;5.846;2022-12-18T00:05:35;-3273.80;96.30
52787;DHT22;38661;53.152;5.846;2022-12-18T00:08:01;-3273.80;96.30
52787;DHT22;38661;53.152;5.846;2022-12-18T00:10:28;-3273.80;96.40
52787;DHT22;38661;53.152;5.846;2022-12-18T00:12:54;-3273.70;96.30
52787;DHT22;38661;53.152;5.846;2022-12-18T00:15:20;-3273.70;96.40
52787;DHT22;38661;53.152;5.846;2022-12-18T00:17:45;-3273.80;96.30
52787;DHT22;38661;53.152;5.846;2022-12-18T00:20:11;-3273.70;96.20
52787;DHT22;38661;53.152;5.846;2022-12-18T00:22:37;-3273.70;96.20
52787;DHT22;38661;53.152;5.846;2022-12-18T00:25:03;-3273.70;96.20
52787;DHT22;38661;53.152;5.846;2022-12-18T00:27:28;-3273.70;96.30
52787;DHT22;38661;53.152;5.846;2022-12-18T00:29:54;-3273.70;96.20
52787;DHT22;38661;53.152;5.846;2022-12-18T00:32:20;-3273.70;96.30
52787;DHT22;38661;53.152;5.846;2022-12-18T00:34:45;-3273.70;96.30
52787;DHT22;38661;53.152;5.846;2022-12-18T00:37:11;-3273.70;96.20
52787;DHT22;38661;53.152;5.846;2022-12-18T00:39:36;-3273.60;96.20
52787;DHT22;38661;53.152;5.846;2022-12-18T00:42:02;-3273.60;96.10
52787;DHT22;38661;53.152;5.846;2022-12-18T00:44:46;-3273.60;96.30
52787;DHT22;38661;53.152;5.846;2022-12-18T00:47:12;-3273.60;96.20
52787;DHT22;38661;53.152;5.846;2022-12-18T00:49:37;-3273.70;96.30
52787;DHT22;38661;53.152;5.846;2022-12-18T00:52:03;-3273.70;96.20
52787;DHT22;38661;53.152;5.846;2022-12-18T00:54:29;-3273.60;96.20
52787;DHT22;38661;53.152;5.846;2022-12-18T00:56:54;-3273.60;96.10
52787;DHT22;38661;53.152;5.846;2022-12-18T00:59:20;-3273.60;96.10
52787;DHT22;38661;53.152;5.846;2022-12-18T01:01:46;-3273.60;96.20
52787;DHT22;38661;53.152;5.846;2022-12-18T01:04:12;-3273.60;96.30
52787;DHT22;38661;53.152;5.846;2022-12-18T01:06:38;-3273.60;96.30
52787;DHT22;38661;53.152;5.846;2022-12-18T01:09:04;-3273.60;96.40
52787;DHT22;38661;53.152;5.846;2022-12-18T01:11:31;-3273.60;96.30
52787;DHT22;38661;53.152;5.846;2022-12-18T01:13:57;-3273.60;96.30
52787;DHT22;38661;53.152;5.846;2022-12-18T01:16:22;-3273.60;96.30
52787;DHT22;38661;53.152;5.846;2022-12-18T01:18:52;-3273.60;96.20
52787;DHT22;38661;53.152;5.846;2022-12-18T01:21:18;-3273.60;96.20
52787;DHT22;38661;53.152;5.846;2022-12-18T01:23:44;-3273.50;96.20
52787;DHT22;38661;53.152;5.846;2022-12-18T01:26:12;-3273.50;96.10
52787;DHT22;38661;53.152;5.846;2022-12-18T01:28:39;-3273.50;96.20
52787;DHT22;38661;53.152;5.846;2022-12-18T01:31:26;-3273.50;96.30
52787;DHT22;38661;53.152;5.846;2022-12-18T01:33:53;-3273.50;96.30
52787;DHT22;38661;53.152;5.846;2022-12-18T01:36:25;-3273.50;96.30
52787;DHT22;38661;53.152;5.846;2022-12-18T01:38:51;-3273.50;96.30
52787;DHT22;38661;53.152;5.846;2022-12-18T01:41:20;-3273.50;96.20
52787;DHT22;38661;53.152;5.846;2022-12-18T01:46:14;-3273.40;96.10
52787;DHT22;38661;53.152;5.846;2022-12-18T01:48:41;-3273.40;96.10
52787;DHT22;38661;53.152;5.846;2022-12-18T01:51:09;-3273.50;96.10
52787;DHT22;38661;53.152;5.846;2022-12-18T01:53:36;-3273.50;96.10
52787;DHT22;38661;53.152;5.846;2022-12-18T01:56:02;-3273.50;96.10
52787;DHT22;38661;53.152;5.846;2022-12-18T01:58:58;-3273.50;96.00
52787;DHT22;38661;53.152;5.846;2022-12-18T02:01:25;-3273.50;96.10
52787;DHT22;38661;53.152;5.846;2022-12-18T02:03:52;-3273.50;96.00
52787;DHT22;38661;53.152;5.846;2022-12-18T02:06:33;-3273.50;96.00
52787;DHT22;38661;53.152;5.846;2022-12-18T02:09:13;-3273.50;96.00
52787;DHT22;38661;53.152;5.846;2022-12-18T02:15:00;-3273.40;95.90
52787;DHT22;38661;53.152;5.846;2022-12-18T02:17:47;-3273.40;95.90
52787;DHT22;38661;53.152;5.846;2022-12-18T02:20:32;-3273.40;95.90
52787;DHT22;38661;53.152;5.846;2022-12-18T02:26:25;-3273.30;95.70
52787;DHT22;38661;53.152;5.846;2022-12-18T02:29:06;-3273.30;95.80
52787;DHT22;38661;53.152;5.846;2022-12-18T02:31:43;-3273.30;95.80
52787;DHT22;38661;53.152;5.846;2022-12-18T02:34:11;-3273.30;95.90
52787;DHT22;38661;53.152;5.846;2022-12-18T02:36:40;-3273.20;95.80
52787;DHT22;38661;53.152;5.846;2022-12-18T02:39:09;-3273.20;95.80
52787;DHT22;38661;53.152;5.846;2022-12-18T02:41:36;-3273.20;95.80
52787;DHT22;38661;53.152;5.846;2022-12-18T02:44:08;-3273.10;95.70
52787;DHT22;38661;53.152;5.846;2022-12-18T02:46:43;-3273.10;95.60
52787;DHT22;38661;53.152;5.846;2022-12-18T02:58:09;-3273.00;95.60
52787;DHT22;38661;53.152;5.846;2022-12-18T03:00:53;-3272.90;95.60
52787;DHT22;38661;53.152;5.846;2022-12-18T03:03:31;-3272.90;95.40
52787;DHT22;38661;53.152;5.846;2022-12-18T03:06:08;-3272.80;95.40
52787;DHT22;38661;53.152;5.846;2022-12-18T03:08:42;-3272.80;95.40
52787;DHT22;38661;53.152;5.846;2022-12-18T03:11:11;-3272.80;95.40
52787;DHT22;38661;53.152;5.846;2022-12-18T03:13:49;-3272.70;95.30
52787;DHT22;38661;53.152;5.846;2022-12-18T03:16:28;-3272.70;95.20
52787;DHT22;38661;53.152;5.846;2022-12-18T03:19:08;-3272.70;95.30
52787;DHT22;38661;53.152;5.846;2022-12-18T03:21:43;-3272.60;95.10
52787;DHT22;38661;53.152;5.846;2022-12-18T03:24:11;-3272.60;95.30
52787;DHT22;38661;53.152;5.846;2022-12-18T03:26:41;-3272.60;95.30
52787;DHT22;38661;53.152;5.846;2022-12-18T03:29:12;-3272.60;95.30
52787;DHT22;38661;53.152;5.846;2022-12-18T03:31:41;-3272.60;95.10
52787;DHT22;38661;53.152;5.846;2022-12-18T03:34:17;-3272.50;95.20
52787;DHT22;38661;53.152;5.846;2022-12-18T03:36:45;-3272.50;95.30
52787;DHT22;38661;53.152;5.846;2022-12-18T03:39:11;-3272.50;95.50
52787;DHT22;38661;53.152;5.846;2022-12-18T03:45:08;-3272.50;95.60
52787;DHT22;38661;53.152;5.846;2022-12-18T03:50:24;-3272.60;95.60
52787;DHT22;38661;53.152;5.846;2022-12-18T03:55:43;-3272.50;95.50
52787;DHT22;38661;53.152;5.846;2022-12-18T03:58:13;-3272.50;95.50
52787;DHT22;38661;53.152;5.846;2022-12-18T04:00:41;-3272.50;95.50
52787;DHT22;38661;53.152;5.846;2022-12-18T04:03:09;-3272.50;95.40
52787;DHT22;38661;53.152;5.846;2022-12-18T04:05:36;-3272.50;95.40
52787;DHT22;38661;53.152;5.846;2022-12-18T04:08:03;-3272.40;95.40
52787;DHT22;38661;53.152;5.846;2022-12-18T04:10:29;-3272.40;95.50
52787;DHT22;38661;53.152;5.846;2022-12-18T04:12:56;-3272.40;95.40
52787;DHT22;38661;53.152;5.846;2022-12-18T04:15:23;-3272.40;95.40
52787;DHT22;38661;53.152;5.846;2022-12-18T04:17:49;-3272.40;95.40
52787;DHT22;38661;53.152;5.846;2022-12-18T04:20:16;-3272.40;95.40
52787;DHT22;38661;53.152;5.846;2022-12-18T04:22:42;-3272.40;95.30
52787;DHT22;38661;53.152;5.846;2022-12-18T04:25:08;-3272.30;95.20
52787;DHT22;38661;53.152;5.846;2022-12-18T04:27:34;-3272.30;95.20
52787;DHT22;38661;53.152;5.846;2022-12-18T04:30:00;-3272.30;95.10
52787;DHT22;38661;53.152;5.846;2022-12-18T04:32:26;-3272.30;95.00
52787;DHT22;38661;53.152;5.846;2022-12-18T04:34:51;-3272.20;95.00
52787;DHT22;38661;53.152;5.846;2022-12-18T04:37:17;-3272.20;94.90
52787;DHT22;38661;53.152;5.846;2022-12-18T04:39:43;-3272.20;94.90
52787;DHT22;38661;53.152;5.846;2022-12-18T04:42:08;-3272.10;94.80
52787;DHT22;38661;53.152;5.846;2022-12-18T04:44:34;-3272.10;94.80
52787;DHT22;38661;53.152;5.846;2022-12-18T04:47:01;-3272.10;94.80
52787;DHT22;38661;53.152;5.846;2022-12-18T04:49:27;-3272.10;94.70
52787;DHT22;38661;53.152;5.846;2022-12-18T04:51:52;-3272.00;94.60
52787;DHT22;38661;53.152;5.846;2022-12-18T04:54:20;-3272.00;94.40
52787;DHT22;38661;53.152;5.846;2022-12-18T04:56:45;-3272.00;94.50
52787;DHT22;38661;53.152;5.846;2022-12-18T04:59:11;-3272.00;94.50
52787;DHT22;38661;53.152;5.846;2022-12-18T05:01:37;-3272.00;94.50
52787;DHT22;38661;53.152;5.846;2022-12-18T05:04:03;-3272.00;94.50
52787;DHT22;38661;53.152;5.846;2022-12-18T05:06:28;-3271.90;94.50
52787;DHT22;38661;53.152;5.846;2022-12-18T05:08:54;-3272.00;94.50
52787;DHT22;38661;53.152;5.846;2022-12-18T05:11:20;-3272.00;94.40
52787;DHT22;38661;53.152;5.846;2022-12-18T05:13:45;-3271.90;94.40
52787;DHT22;38661;53.152;5.846;2022-12-18T05:16:12;-3271.90;94.40
52787;DHT22;38661;53.152;5.846;2022-12-18T05:18:38;-3271.90;94.20
52787;DHT22;38661;53.152;5.846;2022-12-18T05:21:04;-3271.80;94.10
52787;DHT22;38661;53.152;5.846;2022-12-18T05:23:30;-3271.80;94.10
52787;DHT22;38661;53.152;5.846;2022-12-18T05:25:58;-3271.80;94.10
52787;DHT22;38661;53.152;5.846;2022-12-18T05:28:25;-3271.70;94.00
52787;DHT22;38661;53.152;5.846;2022-12-18T05:30:54;-3271.70;93.90
52787;DHT22;38661;53.152;5.846;2022-12-18T05:33:21;-3271.60;93.90
52787;DHT22;38661;53.152;5.846;2022-12-18T05:35:55;-3271.70;94.00
52787;DHT22;38661;53.152;5.846;2022-12-18T05:38:22;-3271.60;94.00
52787;DHT22;38661;53.152;5.846;2022-12-18T05:40:49;-3271.60;94.00
52787;DHT22;38661;53.152;5.846;2022-12-18T05:43:16;-3271.60;94.00
52787;DHT22;38661;53.152;5.846;2022-12-18T05:45:42;-3271.70;94.00
52787;DHT22;38661;53.152;5.846;2022-12-18T05:48:08;-3271.70;94.00
52787;DHT22;38661;53.152;5.846;2022-12-18T05:50:39;-3271.60;93.80
52787;DHT22;38661;53.152;5.846;2022-12-18T05:53:06;-3271.60;93.80
52787;DHT22;38661;53.152;5.846;2022-12-18T05:55:35;-3271.60;93.70
52787;DHT22;38661;53.152;5.846;2022-12-18T05:58:03;-3271.60;93.70
52787;DHT22;38661;53.152;5.846;2022-12-18T06:00:29;-3271.60;93.70
52787;DHT22;38661;53.152;5.846;2022-12-18T06:02:55;-3271.60;93.50
52787;DHT22;38661;53.152;5.846;2022-12-18T06:05:20;-3271.60;93.50
52787;DHT22;38661;53.152;5.846;2022-12-18T06:07:46;-3271.60;93.60
52787;DHT22;38661;53.152;5.846;2022-12-18T06:10:11;-3271.60;93.50
52787;DHT22;38661;53.152;5.846;2022-12-18T06:12:37;-3271.60;93.20
52787;DHT22;38661;53.152;5.846;2022-12-18T06:15:03;-3271.60;93.30
52787;DHT22;38661;53.152;5.846;2022-12-18T06:17:30;-3271.50;93.20
52787;DHT22;38661;53.152;5.846;2022-12-18T06:19:56;-3271.50;93.00
52787;DHT22;38661;53.152;5.846;2022-12-18T06:22:22;-3271.50;93.00
52787;DHT22;38661;53.152;5.846;2022-12-18T06:24:48;-3271.50;93.00
52787;DHT22;38661;53.152;5.846;2022-12-18T06:27:14;-3271.50;93.10
52787;DHT22;38661;53.152;5.846;2022-12-18T06:29:39;-3271.40;92.90
52787;DHT22;38661;53.152;5.846;2022-12-18T06:32:05;-3271.40;92.90
52787;DHT22;38661;53.152;5.846;2022-12-18T06:34:31;-3271.40;92.80
52787;DHT22;38661;53.152;5.846;2022-12-18T06:36:56;-3271.30;92.80
52787;DHT22;38661;53.152;5.846;2022-12-18T06:39:22;-3271.30;92.70
52787;DHT22;38661;53.152;5.846;2022-12-18T06:41:48;-3271.30;92.30
52787;DHT22;38661;53.152;5.846;2022-12-18T06:44:13;-3271.20;92.30
52787;DHT22;38661;53.152;5.846;2022-12-18T06:46:39;-3271.20;92.30
52787;DHT22;38661;53.152;5.846;2022-12-18T06:49:05;-3271.10;92.10
52787;DHT22;38661;53.152;5.846;2022-12-18T06:51:30;-3271.10;92.00
52787;DHT22;38661;53.152;5.846;2022-12-18T06:53:56;-3271.10;92.10
52787;DHT22;38661;53.152;5.846;2022-12-18T06:56:22;-3271.00;92.00
52787;DHT22;38661;53.152;5.846;2022-12-18T06:58:47;-3271.00;92.10
52787;DHT22;38661;53.152;5.846;2022-12-18T07:01:14;-3271.10;92.10
52787;DHT22;38661;53.152;5.846;2022-12-18T07:03:41;-3271.00;92.20
52787;DHT22;38661;53.152;5.846;2022-12-18T07:06:12;-3271.10;92.40
52787;DHT22;38661;53.152;5.846;2022-12-18T07:08:38;-3271.10;92.30
52787;DHT22;38661;53.152;5.846;2022-12-18T07:11:04;-3271.00;92.10
52787;DHT22;38661;53.152;5.846;2022-12-18T07:13:30;-3271.10;92.30
52787;DHT22;38661;53.152;5.846;2022-12-18T07:16:03;-3271.00;92.30
52787;DHT22;38661;53.152;5.846;2022-12-18T07:18:29;-3271.10;92.50
52787;DHT22;38661;53.152;5.846;2022-12-18T07:20:54;-3271.10;92.40
52787;DHT22;38661;53.152;5.846;2022-12-18T07:23:20;-3271.10;92.20
52787;DHT22;38661;53.152;5.846;2022-12-18T07:25:46;-3271.10;92.50
52787;DHT22;38661;53.152;5.846;2022-12-18T07:28:11;-3271.10;92.50
52787;DHT22;38661;53.152;5.846;2022-12-18T07:30:38;-3271.10;92.50
52787;DHT22;38661;53.152;5.846;2022-12-18T07:33:03;-3271.20;92.50
52787;DHT22;38661;53.152;5.846;2022-12-18T07:35:29;-3271.10;92.40
52787;DHT22;38661;53.152;5.846;2022-12-18T07:37:55;-3271.10;92.40
52787;DHT22;38661;53.152;5.846;2022-12-18T07:40:20;-3271.20;92.60
52787;DHT22;38661;53.152;5.846;2022-12-18T07:42:46;-3271.20;92.60
52787;DHT22;38661;53.152;5.846;2022-12-18T07:45:12;-3271.20;92.30
52787;DHT22;38661;53.152;5.846;2022-12-18T07:47:37;-3271.30;92.50
52787;DHT22;38661;53.152;5.846;2022-12-18T07:50:04;-3271.30;92.50
52787;DHT22;38661;53.152;5.846;2022-12-18T07:52:30;-3271.30;92.40
52787;DHT22;38661;53.152;5.846;2022-12-18T07:54:56;-3271.30;92.30
52787;DHT22;38661;53.152;5.846;2022-12-18T07:57:21;-3271.30;92.20
52787;DHT22;38661;53.152;5.846;2022-12-18T07:59:47;-3271.30;92.30
52787;DHT22;38661;53.152;5.846;2022-12-18T08:02:13;-3271.30;92.20
52787;DHT22;38661;53.152;5.846;2022-12-18T08:04:39;-3271.30;92.20
52787;DHT22;38661;53.152;5.846;2022-12-18T08:07:04;-3271.20;92.20
52787;DHT22;38661;53.152;5.846;2022-12-18T08:09:30;-3271.30;92.20
52787;DHT22;38661;53.152;5.846;2022-12-18T08:11:56;-3271.30;92.20
52787;DHT22;38661;53.152;5.846;2022-12-18T08:14:21;-3271.30;92.20
52787;DHT22;38661;53.152;5.846;2022-12-18T08:16:47;-3271.30;92.10
52787;DHT22;38661;53.152;5.846;2022-12-18T08:19:12;-3271.40;92.20
52787;DHT22;38661;53.152;5.846;2022-12-18T08:21:38;-3271.40;92.10
52787;DHT22;38661;53.152;5.846;2022-12-18T08:24:04;-3271.40;92.20
52787;DHT22;38661;53.152;5.846;2022-12-18T08:26:31;-3271.40;92.20
52787;DHT22;38661;53.152;5.846;2022-12-18T08:28:59;-3271.50;92.30
52787;DHT22;38661;53.152;5.846;2022-12-18T08:31:25;-3271.50;92.40
52787;DHT22;38661;53.152;5.846;2022-12-18T08:33:52;-3271.60;92.30
52787;DHT22;38661;53.152;5.846;2022-12-18T08:36:19;-3271.60;92.20
52787;DHT22;38661;53.152;5.846;2022-12-18T08:38:45;-3271.60;92.30
52787;DHT22;38661;53.152;5.846;2022-12-18T08:41:13;-3271.60;92.40
52787;DHT22;38661;53.152;5.846;2022-12-18T08:43:39;-3271.70;92.50
52787;DHT22;38661;53.152;5.846;2022-12-18T08:46:26;-3271.80;92.40
52787;DHT22;38661;53.152;5.846;2022-12-18T08:48:53;-3271.90;92.50
52787;DHT22;38661;53.152;5.846;2022-12-18T08:51:20;-3272.00;92.40
52787;DHT22;38661;53.152;5.846;2022-12-18T08:53:46;-3272.00;92.40
52787;DHT22;38661;53.152;5.846;2022-12-18T08:56:12;-3272.10;92.30
52787;DHT22;38661;53.152;5.846;2022-12-18T08:58:38;-3272.10;92.40
52787;DHT22;38661;53.152;5.846;2022-12-18T09:01:08;-3272.20;92.30
52787;DHT22;38661;53.152;5.846;2022-12-18T09:03:35;-3272.30;92.30
52787;DHT22;38661;53.152;5.846;2022-12-18T09:06:01;-3272.30;92.30
52787;DHT22;38661;53.152;5.846;2022-12-18T09:08:27;-3272.30;92.30
52787;DHT22;38661;53.152;5.846;2022-12-18T09:10:53;-3272.40;92.40
52787;DHT22;38661;53.152;5.846;2022-12-18T09:13:19;-3272.50;92.50
52787;DHT22;38661;53.152;5.846;2022-12-18T09:15:47;-3272.50;92.40
52787;DHT22;38661;53.152;5.846;2022-12-18T09:18:14;-3272.60;92.50
52787;DHT22;38661;53.152;5.846;2022-12-18T09:20:40;-3272.60;92.40
52787;DHT22;38661;53.152;5.846;2022-12-18T09:23:07;-3272.70;92.30
52787;DHT22;38661;53.152;5.846;2022-12-18T09:25:33;-3272.80;92.30
52787;DHT22;38661;53.152;5.846;2022-12-18T09:28:02;-3272.80;92.40
52787;DHT22;38661;53.152;5.846;2022-12-18T09:30:28;-3273.00;92.40
52787;DHT22;38661;53.152;5.846;2022-12-18T09:32:54;-3273.00;92.30
52787;DHT22;38661;53.152;5.846;2022-12-18T09:35:20;-3273.10;92.30
52787;DHT22;38661;53.152;5.846;2022-12-18T09:37:46;-3273.10;92.30
52787;DHT22;38661;53.152;5.846;2022-12-18T09:40:16;-3273.20;92.30
52787;DHT22;38661;53.152;5.846;2022-12-18T09:42:47;-3273.30;92.30
52787;DHT22;38661;53.152;5.846;2022-12-18T09:45:17;-3273.30;92.20
52787;DHT22;38661;53.152;5.846;2022-12-18T09:47:45;-3273.30;92.00
52787;DHT22;38661;53.152;5.846;2022-12-18T09:52:51;-3273.60;92.10
52787;DHT22;38661;53.152;5.846;2022-12-18T09:55:25;-3273.60;92.10
52787;DHT22;38661;53.152;5.846;2022-12-18T09:58:07;-3273.70;92.20
52787;DHT22;38661;53.152;5.846;2022-12-18T10:00:37;-3273.80;92.00
52787;DHT22;38661;53.152;5.846;2022-12-18T10:03:09;-3273.90;91.90
52787;DHT22;38661;53.152;5.846;2022-12-18T10:08:45;-3274.00;92.10
52787;DHT22;38661;53.152;5.846;2022-12-18T10:20:29;-3274.10;91.80
52787;DHT22;38661;53.152;5.846;2022-12-18T10:25:48;-3274.20;91.90
52787;DHT22;38661;53.152;5.846;2022-12-18T10:28:17;-3274.30;91.70
52787;DHT22;38661;53.152;5.846;2022-12-18T10:30:44;-3274.30;91.90
52787;DHT22;38661;53.152;5.846;2022-12-18T10:33:21;-3274.30;91.80
52787;DHT22;38661;53.152;5.846;2022-12-18T10:35:52;-3274.40;91.60
52787;DHT22;38661;53.152;5.846;2022-12-18T10:43:23;-3274.40;90.30
52787;DHT22;38661;53.152;5.846;2022-12-18T10:48:24;-3274.50;91.00
52787;DHT22;38661;53.152;5.846;2022-12-18T10:50:51;-3274.60;90.80
52787;DHT22;38661;53.152;5.846;2022-12-18T10:53:23;-3274.60;90.90
52787;DHT22;38661;53.152;5.846;2022-12-18T10:55:51;-3274.60;91.20
52787;DHT22;38661;53.152;5.846;2022-12-18T10:58:38;-3274.70;91.30
52787;DHT22;38661;53.152;5.846;2022-12-18T11:01:13;-3274.70;91.40
52787;DHT22;38661;53.152;5.846;2022-12-18T11:06:23;-3274.80;91.20
52787;DHT22;38661;53.152;5.846;2022-12-18T11:11:52;-3274.90;90.20
52787;DHT22;38661;53.152;5.846;2022-12-18T11:14:32;-3275.00;89.80
52787;DHT22;38661;53.152;5.846;2022-12-18T11:16:59;-3275.00;90.30
52787;DHT22;38661;53.152;5.846;2022-12-18T11:22:02;-3275.00;90.30
52787;DHT22;38661;53.152;5.846;2022-12-18T11:24:36;-3275.00;89.90
52787;DHT22;38661;53.152;5.846;2022-12-18T11:27:04;-3275.10;90.30
52787;DHT22;38661;53.152;5.846;2022-12-18T11:29:38;-3275.10;90.30
52787;DHT22;38661;53.152;5.846;2022-12-18T11:35:30;-3275.20;90.70
52787;DHT22;38661;53.152;5.846;2022-12-18T11:38:02;-3275.20;90.10
52787;DHT22;38661;53.152;5.846;2022-12-18T11:40:36;-3275.20;89.80
52787;DHT22;38661;53.152;5.846;2022-12-18T11:43:16;-3275.20;89.40
52787;DHT22;38661;53.152;5.846;2022-12-18T11:46:01;-3275.20;89.60
52787;DHT22;38661;53.152;5.846;2022-12-18T11:48:34;-3275.20;89.70
52787;DHT22;38661;53.152;5.846;2022-12-18T11:51:04;-3275.20;89.80
52787;DHT22;38661;53.152;5.846;2022-12-18T11:53:31;-3275.20;89.70
52787;DHT22;38661;53.152;5.846;2022-12-18T11:56:02;-3275.20;89.40
52787;DHT22;38661;53.152;5.846;2022-12-18T12:15:25;-3275.30;90.60
52787;DHT22;38661;53.152;5.846;2022-12-18T12:18:13;-3275.40;90.30
52787;DHT22;38661;53.152;5.846;2022-12-18T12:21:05;-3275.30;89.80
52787;DHT22;38661;53.152;5.846;2022-12-18T12:26:34;-3275.40;89.60
52787;DHT22;38661;53.152;5.846;2022-12-18T12:40:18;-3275.60;90.00
52787;DHT22;38661;53.152;5.846;2022-12-18T12:42:50;-3275.60;89.80
52787;DHT22;38661;53.152;5.846;2022-12-18T12:45:49;-3275.60;89.20
52787;DHT22;38661;53.152;5.846;2022-12-18T12:51:19;-3275.60;89.00
52787;DHT22;38661;53.152;5.846;2022-12-18T12:53:46;-3275.60;89.30
52787;DHT22;38661;53.152;5.846;2022-12-18T12:56:14;-3275.70;88.90
52787;DHT22;38661;53.152;5.846;2022-12-18T12:59:02;-3275.60;88.60
52787;DHT22;38661;53.152;5.846;2022-12-18T13:07:06;-3275.60;87.80
52787;DHT22;38661;53.152;5.846;2022-12-18T13:13:05;-3275.60;88.20
52787;DHT22;38661;53.152;5.846;2022-12-18T13:18:21;-3275.50;88.20
52787;DHT22;38661;53.152;5.846;2022-12-18T13:23:33;-3275.60;88.10
52787;DHT22;38661;53.152;5.846;2022-12-18T13:34:21;-3275.60;88.40
52787;DHT22;38661;53.152;5.846;2022-12-18T13:36:48;-3275.60;88.70
52787;DHT22;38661;53.152;5.846;2022-12-18T13:41:41;-3275.60;88.90
52787;DHT22;38661;53.152;5.846;2022-12-18T13:44:31;-3275.70;88.90
52787;DHT22;38661;53.152;5.846;2022-12-18T13:46:58;-3275.70;88.90
52787;DHT22;38661;53.152;5.846;2022-12-18T13:49:25;-3275.70;89.00
52787;DHT22;38661;53.152;5.846;2022-12-18T13:51:54;-3275.70;89.20
52787;DHT22;38661;53.152;5.846;2022-12-18T13:54:39;-3275.70;88.90
52787;DHT22;38661;53.152;5.846;2022-12-18T13:57:28;-3275.80;88.90
52787;DHT22;38661;53.152;5.846;2022-12-18T13:59:55;-3275.70;89.00
52787;DHT22;38661;53.152;5.846;2022-12-18T14:02:27;-3275.80;88.90
52787;DHT22;38661;53.152;5.846;2022-12-18T14:04:54;-3275.70;88.90
52787;DHT22;38661;53.152;5.846;2022-12-18T14:07:24;-3275.80;88.80
52787;DHT22;38661;53.152;5.846;2022-12-18T14:09:53;-3275.70;88.90
52787;DHT22;38661;53.152;5.846;2022-12-18T14:12:44;-3275.70;89.40
52787;DHT22;38661;53.152;5.846;2022-12-18T14:15:34;-3275.70;89.10
52787;DHT22;38661;53.152;5.846;2022-12-18T14:20:47;-3275.70;89.20
52787;DHT22;38661;53.152;5.846;2022-12-18T14:25:55;-3275.80;89.00
52787;DHT22;38661;53.152;5.846;2022-12-18T14:28:21;-3275.80;88.60
52787;DHT22;38661;53.152;5.846;2022-12-18T14:30:48;-3275.70;88.80
52787;DHT22;38661;53.152;5.846;2022-12-18T14:33:19;-3275.80;88.90
52787;DHT22;38661;53.152;5.846;2022-12-18T14:36:00;-3275.70;89.00
52787;DHT22;38661;53.152;5.846;2022-12-18T14:38:39;-3275.70;89.10
52787;DHT22;38661;53.152;5.846;2022-12-18T14:41:15;-3275.70;89.00
52787;DHT22;38661;53.152;5.846;2022-12-18T14:43:43;-3275.70;88.80
52787;DHT22;38661;53.152;5.846;2022-12-18T14:46:32;-3275.70;88.60
52787;DHT22;38661;53.152;5.846;2022-12-18T14:49:04;-3275.70;88.70
52787;DHT22;38661;53.152;5.846;2022-12-18T14:51:34;-3275.60;88.50
52787;DHT22;38661;53.152;5.846;2022-12-18T14:54:05;-3275.60;88.70
52787;DHT22;38661;53.152;5.846;2022-12-18T14:56:44;-3275.60;89.20
52787;DHT22;38661;53.152;5.846;2022-12-18T14:59:17;-3275.60;88.60
52787;DHT22;38661;53.152;5.846;2022-12-18T15:01:46;-3275.60;88.50
52787;DHT22;38661;53.152;5.846;2022-12-18T15:04:39;-3275.60;88.70
52787;DHT22;38661;53.152;5.846;2022-12-18T15:09:39;-3275.60;88.90
52787;DHT22;38661;53.152;5.846;2022-12-18T15:12:15;-3275.60;88.80
52787;DHT22;38661;53.152;5.846;2022-12-18T15:14:45;-3275.60;88.60
52787;DHT22;38661;53.152;5.846;2022-12-18T15:17:19;-3275.60;88.50
52787;DHT22;38661;53.152;5.846;2022-12-18T15:19:46;-3275.60;88.70
52787;DHT22;38661;53.152;5.846;2022-12-18T15:22:21;-3275.60;88.70
52787;DHT22;38661;53.152;5.846;2022-12-18T15:24:48;-3275.60;89.10
52787;DHT22;38661;53.152;5.846;2022-12-18T15:27:35;-3275.60;88.90
52787;DHT22;38661;53.152;5.846;2022-12-18T15:32:36;-3275.50;88.90
52787;DHT22;38661;53.152;5.846;2022-12-18T15:35:12;-3275.60;88.80
52787;DHT22;38661;53.152;5.846;2022-12-18T15:37:40;-3275.60;88.80
52787;DHT22;38661;53.152;5.846;2022-12-18T15:40:08;-3275.50;88.50
52787;DHT22;38661;53.152;5.846;2022-12-18T15:42:37;-3275.60;88.70
52787;DHT22;38661;53.152;5.846;2022-12-18T15:45:21;-3275.60;88.80
52787;DHT22;38661;53.152;5.846;2022-12-18T15:47:46;-3275.60;88.70
52787;DHT22;38661;53.152;5.846;2022-12-18T15:50:12;-3275.50;88.70
52787;DHT22;38661;53.152;5.846;2022-12-18T15:52:47;-3275.60;88.70
52787;DHT22;38661;53.152;5.846;2022-12-18T15:55:24;-3275.60;88.40
52787;DHT22;38661;53.152;5.846;2022-12-18T15:58:10;-3275.60;88.30
52787;DHT22;38661;53.152;5.846;2022-12-18T16:00:38;-3275.60;88.40
52787;DHT22;38661;53.152;5.846;2022-12-18T16:03:04;-3275.60;88.30
52787;DHT22;38661;53.152;5.846;2022-12-18T16:05:30;-3275.60;88.20
52787;DHT22;38661;53.152;5.846;2022-12-18T16:07:56;-3275.60;88.00
52787;DHT22;38661;53.152;5.846;2022-12-18T16:10:22;-3275.60;88.00
52787;DHT22;38661;53.152;5.846;2022-12-18T16:12:49;-3275.60;88.10
52787;DHT22;38661;53.152;5.846;2022-12-18T16:15:15;-3275.60;87.90
52787;DHT22;38661;53.152;5.846;2022-12-18T16:17:42;-3275.60;87.70
52787;DHT22;38661;53.152;5.846;2022-12-18T16:20:19;-3275.60;87.60
52787;DHT22;38661;53.152;5.846;2022-12-18T16:22:46;-3275.60;87.70
52787;DHT22;38661;53.152;5.846;2022-12-18T16:25:17;-3275.60;87.70
52787;DHT22;38661;53.152;5.846;2022-12-18T16:27:43;-3275.60;87.70
52787;DHT22;38661;53.152;5.846;2022-12-18T16:30:19;-3275.60;88.00
52787;DHT22;38661;53.152;5.846;2022-12-18T16:32:45;-3275.60;88.20
52787;DHT22;38661;53.152;5.846;2022-12-18T16:35:12;-3275.60;88.30
52787;DHT22;38661;53.152;5.846;2022-12-18T16:37:39;-3275.60;88.30
52787;DHT22;38661;53.152;5.846;2022-12-18T16:40:07;-3275.60;88.40
52787;DHT22;38661;53.152;5.846;2022-12-18T16:42:35;-3275.60;88.20
52787;DHT22;38661;53.152;5.846;2022-12-18T16:45:02;-3275.60;88.20
52787;DHT22;38661;53.152;5.846;2022-12-18T16:47:28;-3275.60;88.30
52787;DHT22;38661;53.152;5.846;2022-12-18T16:49:54;-3275.60;88.10
52787;DHT22;38661;53.152;5.846;2022-12-18T16:52:21;-3275.60;88.10
52787;DHT22;38661;53.152;5.846;2022-12-18T16:54:47;-3275.60;88.30
52787;DHT22;38661;53.152;5.846;2022-12-18T16:57:15;-3275.60;88.20
52787;DHT22;38661;53.152;5.846;2022-12-18T16:59:41;-3275.70;88.20
52787;DHT22;38661;53.152;5.846;2022-12-18T17:02:26;-3275.70;88.30
52787;DHT22;38661;53.152;5.846;2022-12-18T17:04:53;-3275.70;88.10
52787;DHT22;38661;53.152;5.846;2022-12-18T17:07:19;-3275.70;88.10
52787;DHT22;38661;53.152;5.846;2022-12-18T17:09:45;-3275.80;88.00
52787;DHT22;38661;53.152;5.846;2022-12-18T17:12:11;-3275.80;88.10
52787;DHT22;38661;53.152;5.846;2022-12-18T17:14:36;-3275.80;88.20